sensor_id;sensor_type;location;lat;lon;timestamp;P1;durP1;ratioP1;P2;durP2;ratioP2
6133;SDS011;3098;42.678;23.364;2022-11-20T00:01:41;3.95;;;2.50;;
6133;SDS011;3098;42.678;23.364;2022-11-20T00:04:11;7.13;;;2.67;;
6133;SDS011;3098;42.678;23.364;2022-11-20T00:06:46;5.43;;;2.58;;
6133;SDS011;3098;42.678;23.364;2022-11-20T00:09:16;4.50;;;2.80;;
6133;SDS011;3098;42.678;23.364;2022-11-20T00:11:47;2.45;;;2.05;;
6133;SDS011;3098;42.678;23.364;2022-11-20T00:14:18;11.23;;;2.58;;
6133;SDS011;3098;42.678;23.364;2022-11-20T00:16:50;8.98;;;3.08;;
6133;SDS011;3098;42.678;23.364;2022-11-20T00:19:20;4.85;;;3.05;;
6133;SDS011;3098;42.678;23.364;2022-11-20T00:21:53;11.57;;;3.00;;
6133;SDS011;3098;42.678;23.364;2022-11-20T00:24:26;3.38;;;2.22;;
6133;SDS011;3098;42.678;23.364;2022-11-20T00:26:56;9.93;;;3.20;;
6133;SDS011;3098;42.678;23.364;2022-11-20T00:29:23;3.67;;;2.63;;
6133;SDS011;3098;42.678;23.364;2022-11-20T00:31:53;3.78;;;2.15;;
6133;SDS011;3098;42.678;23.364;2022-11-20T00:34:22;7.82;;;2.88;;
6133;SDS011;3098;42.678;23.364;2022-11-20T00:36:50;5.53;;;2.38;;
6133;SDS011;3098;42.678;23.364;2022-11-20T00:39:22;7.28;;;3.55;;
6133;SDS011;3098;42.678;23.364;2022-11-20T00:41:54;8.02;;;2.47;;
6133;SDS011;3098;42.678;23.364;2022-11-20T00:44:25;5.28;;;2.80;;
6133;SDS011;3098;42.678;23.364;2022-11-20T00:46:53;3.22;;;1.80;;
6133;SDS011;3098;42.678;23.364;2022-11-20T00:49:25;1.20;;;0.95;;
6133;SDS011;3098;42.678;23.364;2022-11-20T00:51:57;5.22;;;2.13;;
6133;SDS011;3098;42.678;23.364;2022-11-20T00:54:26;2.42;;;1.90;;
6133;SDS011;3098;42.678;23.364;2022-11-20T00:57:00;2.58;;;1.67;;
6133;SDS011;3098;42.678;23.364;2022-11-20T00:59:28;2.78;;;1.42;;
6133;SDS011;3098;42.678;23.364;2022-11-20T01:01:57;3.30;;;1.52;;
6133;SDS011;3098;42.678;23.364;2022-11-20T01:04:27;1.75;;;1.17;;
6133;SDS011;3098;42.678;23.364;2022-11-20T01:06:59;2.50;;;1.00;;
6133;SDS011;3098;42.678;23.364;2022-11-20T01:09:29;2.75;;;1.42;;
6133;SDS011;3098;42.678;23.364;2022-11-20T01:12:00;1.30;;;1.00;;
6133;SDS011;3098;42.678;23.364;2022-11-20T01:14:32;2.28;;;0.88;;
6133;SDS011;3098;42.678;23.364;2022-11-20T01:17:00;2.00;;;1.17;;
6133;SDS011;3098;42.678;23.364;2022-11-20T01:19:31;1.42;;;0.70;;
6133;SDS011;3098;42.678;23.364;2022-11-20T01:22:03;1.35;;;0.80;;
6133;SDS011;3098;42.678;23.364;2022-11-20T01:24:34;2.00;;;1.35;;
6133;SDS011;3098;42.678;23.364;2022-11-20T01:27:01;1.00;;;0.82;;
6133;SDS011;3098;42.678;23.364;2022-11-20T01:29:29;5.28;;;0.70;;
6133;SDS011;3098;42.678;23.364;2022-11-20T01:31:57;0.98;;;0.88;;
6133;SDS011;3098;42.678;23.364;2022-11-20T01:34:23;3.38;;;1.33;;
6133;SDS011;3098;42.678;23.364;2022-11-20T01:36:51;4.22;;;1.80;;
6133;SDS011;3098;42.678;23.364;2022-11-20T01:39:21;1.50;;;1.10;;
6133;SDS011;3098;42.678;23.364;2022-11-20T01:41:50;1.27;;;1.17;;
6133;SDS011;3098;42.678;23.364;2022-11-20T01:44:52;2.85;;;1.52;;
6133;SDS011;3098;42.678;23.364;2022-11-20T01:47:23;2.00;;;1.42;;
6133;SDS011;3098;42.678;23.364;2022-11-20T01:49:56;2.70;;;0.98;;
6133;SDS011;3098;42.678;23.364;2022-11-20T01:52:30;0.43;;;0.43;;
6133;SDS011;3098;42.678;23.364;2022-11-20T01:55:07;1.63;;;1.00;;
6133;SDS011;3098;42.678;23.364;2022-11-20T01:57:39;0.85;;;0.80;;
6133;SDS011;3098;42.678;23.364;2022-11-20T02:00:08;2.10;;;1.00;;
6133;SDS011;3098;42.678;23.364;2022-11-20T02:02:37;1.42;;;1.17;;
6133;SDS011;3098;42.678;23.364;2022-11-20T02:05:14;3.40;;;1.38;;
6133;SDS011;3098;42.678;23.364;2022-11-20T02:07:53;0.70;;;0.70;;
6133;SDS011;3098;42.678;23.364;2022-11-20T02:10:23;4.88;;;1.20;;
6133;SDS011;3098;42.678;23.364;2022-11-20T02:12:52;7.32;;;1.38;;
6133;SDS011;3098;42.678;23.364;2022-11-20T02:15:37;1.85;;;1.00;;
6133;SDS011;3098;42.678;23.364;2022-11-20T02:18:05;2.42;;;1.38;;
6133;SDS011;3098;42.678;23.364;2022-11-20T02:20:33;1.85;;;1.17;;
6133;SDS011;3098;42.678;23.364;2022-11-20T02:23:01;4.00;;;1.00;;
6133;SDS011;3098;42.678;23.364;2022-11-20T02:25:33;2.13;;;1.20;;
6133;SDS011;3098;42.678;23.364;2022-11-20T02:28:02;2.10;;;1.25;;
6133;SDS011;3098;42.678;23.364;2022-11-20T02:30:30;2.58;;;0.80;;
6133;SDS011;3098;42.678;23.364;2022-11-20T02:32:57;2.33;;;1.25;;
6133;SDS011;3098;42.678;23.364;2022-11-20T02:35:41;1.92;;;1.10;;
6133;SDS011;3098;42.678;23.364;2022-11-20T02:38:09;1.35;;;1.00;;
6133;SDS011;3098;42.678;23.364;2022-11-20T02:40:38;1.23;;;1.00;;
6133;SDS011;3098;42.678;23.364;2022-11-20T02:43:06;1.30;;;0.93;;
6133;SDS011;3098;42.678;23.364;2022-11-20T02:45:34;0.70;;;0.70;;
6133;SDS011;3098;42.678;23.364;2022-11-20T02:48:01;1.42;;;0.70;;
6133;SDS011;3098;42.678;23.364;2022-11-20T02:50:29;1.40;;;0.70;;
6133;SDS011;3098;42.678;23.364;2022-11-20T02:52:56;1.25;;;0.75;;
6133;SDS011;3098;42.678;23.364;2022-11-20T02:55:23;1.10;;;0.77;;
6133;SDS011;3098;42.678;23.364;2022-11-20T02:57:53;1.58;;;0.70;;
6133;SDS011;3098;42.678;23.364;2022-11-20T03:00:27;0.82;;;0.80;;
6133;SDS011;3098;42.678;23.364;2022-11-20T03:03:03;1.95;;;0.80;;
6133;SDS011;3098;42.678;23.364;2022-11-20T03:05:37;0.60;;;0.60;;
6133;SDS011;3098;42.678;23.364;2022-11-20T03:08:10;1.27;;;0.70;;
6133;SDS011;3098;42.678;23.364;2022-11-20T03:10:44;0.77;;;0.57;;
6133;SDS011;3098;42.678;23.364;2022-11-20T03:13:21;1.02;;;0.73;;
6133;SDS011;3098;42.678;23.364;2022-11-20T03:15:52;0.57;;;0.57;;
6133;SDS011;3098;42.678;23.364;2022-11-20T03:18:27;6.70;;;1.05;;
6133;SDS011;3098;42.678;23.364;2022-11-20T03:20:57;0.75;;;0.70;;
6133;SDS011;3098;42.678;23.364;2022-11-20T03:23:32;2.38;;;0.80;;
6133;SDS011;3098;42.678;23.364;2022-11-20T03:26:12;0.70;;;0.70;;
6133;SDS011;3098;42.678;23.364;2022-11-20T03:28:47;0.82;;;0.70;;
6133;SDS011;3098;42.678;23.364;2022-11-20T03:31:19;1.95;;;0.77;;
6133;SDS011;3098;42.678;23.364;2022-11-20T03:33:50;0.70;;;0.70;;
6133;SDS011;3098;42.678;23.364;2022-11-20T03:36:20;0.57;;;0.57;;
6133;SDS011;3098;42.678;23.364;2022-11-20T03:38:48;4.78;;;0.70;;
6133;SDS011;3098;42.678;23.364;2022-11-20T03:41:22;0.90;;;0.73;;
6133;SDS011;3098;42.678;23.364;2022-11-20T03:43:55;0.90;;;0.85;;
6133;SDS011;3098;42.678;23.364;2022-11-20T03:46:25;0.70;;;0.70;;
6133;SDS011;3098;42.678;23.364;2022-11-20T03:48:56;2.13;;;0.60;;
6133;SDS011;3098;42.678;23.364;2022-11-20T03:51:26;0.75;;;0.70;;
6133;SDS011;3098;42.678;23.364;2022-11-20T03:53:55;0.98;;;0.45;;
6133;SDS011;3098;42.678;23.364;2022-11-20T03:56:29;0.50;;;0.50;;
6133;SDS011;3098;42.678;23.364;2022-11-20T03:58:58;0.65;;;0.52;;
6133;SDS011;3098;42.678;23.364;2022-11-20T04:01:26;0.50;;;0.50;;
6133;SDS011;3098;42.678;23.364;2022-11-20T04:03:56;1.98;;;0.73;;
6133;SDS011;3098;42.678;23.364;2022-11-20T04:06:24;0.77;;;0.77;;
6133;SDS011;3098;42.678;23.364;2022-11-20T04:08:53;2.17;;;0.60;;
6133;SDS011;3098;42.678;23.364;2022-11-20T04:11:22;0.40;;;0.40;;
6133;SDS011;3098;42.678;23.364;2022-11-20T04:13:51;0.90;;;0.50;;
6133;SDS011;3098;42.678;23.364;2022-11-20T04:16:21;3.85;;;0.98;;
6133;SDS011;3098;42.678;23.364;2022-11-20T04:18:51;2.25;;;0.98;;
6133;SDS011;3098;42.678;23.364;2022-11-20T04:21:19;0.65;;;0.50;;
6133;SDS011;3098;42.678;23.364;2022-11-20T04:23:47;1.15;;;0.60;;
6133;SDS011;3098;42.678;23.364;2022-11-20T04:26:14;2.95;;;0.93;;
6133;SDS011;3098;42.678;23.364;2022-11-20T04:28:41;0.55;;;0.43;;
6133;SDS011;3098;42.678;23.364;2022-11-20T04:31:09;1.85;;;0.57;;
6133;SDS011;3098;42.678;23.364;2022-11-20T04:33:39;1.10;;;0.45;;
6133;SDS011;3098;42.678;23.364;2022-11-20T04:36:07;1.95;;;0.65;;
6133;SDS011;3098;42.678;23.364;2022-11-20T04:38:37;0.50;;;0.50;;
6133;SDS011;3098;42.678;23.364;2022-11-20T04:41:05;0.60;;;0.60;;
6133;SDS011;3098;42.678;23.364;2022-11-20T04:43:34;0.55;;;0.55;;
6133;SDS011;3098;42.678;23.364;2022-11-20T04:46:02;1.58;;;0.90;;
6133;SDS011;3098;42.678;23.364;2022-11-20T04:48:29;0.45;;;0.45;;
6133;SDS011;3098;42.678;23.364;2022-11-20T04:51:02;0.52;;;0.52;;
6133;SDS011;3098;42.678;23.364;2022-11-20T04:53:29;1.80;;;0.77;;
6133;SDS011;3098;42.678;23.364;2022-11-20T04:55:59;1.13;;;0.70;;
6133;SDS011;3098;42.678;23.364;2022-11-20T04:58:27;0.70;;;0.68;;
6133;SDS011;3098;42.678;23.364;2022-11-20T05:00:59;1.65;;;0.70;;
6133;SDS011;3098;42.678;23.364;2022-11-20T05:03:27;1.13;;;0.82;;
6133;SDS011;3098;42.678;23.364;2022-11-20T05:05:54;0.57;;;0.57;;
6133;SDS011;3098;42.678;23.364;2022-11-20T05:08:22;0.73;;;0.40;;
6133;SDS011;3098;42.678;23.364;2022-11-20T05:10:49;0.35;;;0.35;;
6133;SDS011;3098;42.678;23.364;2022-11-20T05:13:17;1.10;;;0.70;;
6133;SDS011;3098;42.678;23.364;2022-11-20T05:15:44;0.50;;;0.50;;
6133;SDS011;3098;42.678;23.364;2022-11-20T05:18:11;0.50;;;0.50;;
6133;SDS011;3098;42.678;23.364;2022-11-20T05:20:40;4.85;;;0.80;;
6133;SDS011;3098;42.678;23.364;2022-11-20T05:23:07;0.43;;;0.43;;
6133;SDS011;3098;42.678;23.364;2022-11-20T05:25:35;0.90;;;0.68;;
6133;SDS011;3098;42.678;23.364;2022-11-20T05:28:02;2.78;;;0.90;;
6133;SDS011;3098;42.678;23.364;2022-11-20T05:30:30;0.50;;;0.50;;
6133;SDS011;3098;42.678;23.364;2022-11-20T05:32:57;6.13;;;0.98;;
6133;SDS011;3098;42.678;23.364;2022-11-20T05:35:24;2.63;;;0.80;;
6133;SDS011;3098;42.678;23.364;2022-11-20T05:37:51;0.70;;;0.55;;
6133;SDS011;3098;42.678;23.364;2022-11-20T05:40:19;1.55;;;1.00;;
6133;SDS011;3098;42.678;23.364;2022-11-20T05:42:48;0.60;;;0.60;;
6133;SDS011;3098;42.678;23.364;2022-11-20T05:45:15;0.68;;;0.68;;
6133;SDS011;3098;42.678;23.364;2022-11-20T05:47:42;3.60;;;0.60;;
6133;SDS011;3098;42.678;23.364;2022-11-20T05:50:10;3.08;;;0.75;;
6133;SDS011;3098;42.678;23.364;2022-11-20T05:52:37;2.03;;;0.70;;
6133;SDS011;3098;42.678;23.364;2022-11-20T05:55:04;2.85;;;0.60;;
6133;SDS011;3098;42.678;23.364;2022-11-20T05:57:32;1.10;;;0.60;;
6133;SDS011;3098;42.678;23.364;2022-11-20T06:00:00;3.70;;;0.95;;
6133;SDS011;3098;42.678;23.364;2022-11-20T06:02:27;1.95;;;0.60;;
6133;SDS011;3098;42.678;23.364;2022-11-20T06:04:54;0.80;;;0.77;;
6133;SDS011;3098;42.678;23.364;2022-11-20T06:07:21;3.03;;;0.77;;
6133;SDS011;3098;42.678;23.364;2022-11-20T06:09:48;0.50;;;0.50;;
6133;SDS011;3098;42.678;23.364;2022-11-20T06:12:15;4.15;;;0.88;;
6133;SDS011;3098;42.678;23.364;2022-11-20T06:14:42;0.60;;;0.60;;
6133;SDS011;3098;42.678;23.364;2022-11-20T06:17:11;0.60;;;0.60;;
6133;SDS011;3098;42.678;23.364;2022-11-20T06:19:38;1.98;;;0.82;;
6133;SDS011;3098;42.678;23.364;2022-11-20T06:22:06;0.90;;;0.90;;
6133;SDS011;3098;42.678;23.364;2022-11-20T06:24:33;0.60;;;0.60;;
6133;SDS011;3098;42.678;23.364;2022-11-20T06:27:00;1.77;;;0.60;;
6133;SDS011;3098;42.678;23.364;2022-11-20T06:29:27;3.53;;;0.60;;
6133;SDS011;3098;42.678;23.364;2022-11-20T06:31:54;2.72;;;0.93;;
6133;SDS011;3098;42.678;23.364;2022-11-20T06:34:22;0.63;;;0.63;;
6133;SDS011;3098;42.678;23.364;2022-11-20T06:36:50;0.63;;;0.60;;
6133;SDS011;3098;42.678;23.364;2022-11-20T06:39:17;0.93;;;0.90;;
6133;SDS011;3098;42.678;23.364;2022-11-20T06:41:44;1.90;;;0.55;;
6133;SDS011;3098;42.678;23.364;2022-11-20T06:44:11;4.47;;;0.70;;
6133;SDS011;3098;42.678;23.364;2022-11-20T06:46:38;1.65;;;0.68;;
6133;SDS011;3098;42.678;23.364;2022-11-20T06:49:05;0.98;;;0.80;;
6133;SDS011;3098;42.678;23.364;2022-11-20T06:51:34;0.52;;;0.52;;
6133;SDS011;3098;42.678;23.364;2022-11-20T06:54:01;1.65;;;1.02;;
6133;SDS011;3098;42.678;23.364;2022-11-20T06:56:28;0.77;;;0.60;;
6133;SDS011;3098;42.678;23.364;2022-11-20T06:58:56;1.40;;;1.05;;
6133;SDS011;3098;42.678;23.364;2022-11-20T07:01:23;1.63;;;0.60;;
6133;SDS011;3098;42.678;23.364;2022-11-20T07:03:50;0.68;;;0.68;;
6133;SDS011;3098;42.678;23.364;2022-11-20T07:06:19;0.68;;;0.68;;
6133;SDS011;3098;42.678;23.364;2022-11-20T07:08:47;1.50;;;1.00;;
6133;SDS011;3098;42.678;23.364;2022-11-20T07:11:16;0.95;;;0.55;;
6133;SDS011;3098;42.678;23.364;2022-11-20T07:13:43;0.50;;;0.50;;
6133;SDS011;3098;42.678;23.364;2022-11-20T07:16:12;1.92;;;0.60;;
6133;SDS011;3098;42.678;23.364;2022-11-20T07:18:39;3.28;;;0.77;;
6133;SDS011;3098;42.678;23.364;2022-11-20T07:21:07;1.27;;;0.88;;
6133;SDS011;3098;42.678;23.364;2022-11-20T07:23:35;0.85;;;0.52;;
6133;SDS011;3098;42.678;23.364;2022-11-20T07:26:04;1.13;;;0.65;;
6133;SDS011;3098;42.678;23.364;2022-11-20T07:28:32;1.20;;;0.70;;
6133;SDS011;3098;42.678;23.364;2022-11-20T07:31:00;1.92;;;0.82;;
6133;SDS011;3098;42.678;23.364;2022-11-20T07:33:28;4.68;;;0.90;;
6133;SDS011;3098;42.678;23.364;2022-11-20T07:35:55;2.47;;;0.93;;
6133;SDS011;3098;42.678;23.364;2022-11-20T07:38:24;0.90;;;0.85;;
6133;SDS011;3098;42.678;23.364;2022-11-20T07:40:53;5.13;;;0.80;;
6133;SDS011;3098;42.678;23.364;2022-11-20T07:43:22;0.70;;;0.70;;
6133;SDS011;3098;42.678;23.364;2022-11-20T07:45:50;1.45;;;0.95;;
6133;SDS011;3098;42.678;23.364;2022-11-20T07:48:17;2.55;;;1.02;;
6133;SDS011;3098;42.678;23.364;2022-11-20T07:50:44;0.93;;;0.80;;
6133;SDS011;3098;42.678;23.364;2022-11-20T07:53:11;1.30;;;0.60;;
6133;SDS011;3098;42.678;23.364;2022-11-20T07:55:39;1.73;;;0.70;;
6133;SDS011;3098;42.678;23.364;2022-11-20T07:58:06;1.58;;;0.82;;
6133;SDS011;3098;42.678;23.364;2022-11-20T08:00:35;1.52;;;0.90;;
6133;SDS011;3098;42.678;23.364;2022-11-20T08:03:02;2.03;;;0.93;;
6133;SDS011;3098;42.678;23.364;2022-11-20T08:05:30;1.00;;;0.80;;
6133;SDS011;3098;42.678;23.364;2022-11-20T08:07:57;1.35;;;0.73;;
6133;SDS011;3098;42.678;23.364;2022-11-20T08:10:24;0.77;;;0.77;;
6133;SDS011;3098;42.678;23.364;2022-11-20T08:13:04;1.45;;;0.57;;
6133;SDS011;3098;42.678;23.364;2022-11-20T08:15:53;2.45;;;1.05;;
6133;SDS011;3098;42.678;23.364;2022-11-20T08:18:20;0.98;;;0.73;;
6133;SDS011;3098;42.678;23.364;2022-11-20T08:20:47;1.27;;;0.90;;
6133;SDS011;3098;42.678;23.364;2022-11-20T08:23:14;0.63;;;0.63;;
6133;SDS011;3098;42.678;23.364;2022-11-20T08:25:42;0.50;;;0.50;;
6133;SDS011;3098;42.678;23.364;2022-11-20T08:28:10;4.03;;;0.70;;
6133;SDS011;3098;42.678;23.364;2022-11-20T08:30:36;1.25;;;1.10;;
6133;SDS011;3098;42.678;23.364;2022-11-20T08:33:06;6.05;;;1.20;;
6133;SDS011;3098;42.678;23.364;2022-11-20T08:35:34;4.88;;;1.13;;
6133;SDS011;3098;42.678;23.364;2022-11-20T08:38:01;4.57;;;0.68;;
6133;SDS011;3098;42.678;23.364;2022-11-20T08:40:28;1.63;;;0.85;;
6133;SDS011;3098;42.678;23.364;2022-11-20T08:42:55;0.77;;;0.65;;
6133;SDS011;3098;42.678;23.364;2022-11-20T08:45:23;1.48;;;0.43;;
6133;SDS011;3098;42.678;23.364;2022-11-20T08:47:50;2.17;;;1.02;;
6133;SDS011;3098;42.678;23.364;2022-11-20T08:50:19;4.38;;;1.38;;
6133;SDS011;3098;42.678;23.364;2022-11-20T08:52:51;3.47;;;1.08;;
6133;SDS011;3098;42.678;23.364;2022-11-20T08:55:21;5.43;;;0.98;;
6133;SDS011;3098;42.678;23.364;2022-11-20T08:57:48;4.05;;;1.60;;
6133;SDS011;3098;42.678;23.364;2022-11-20T09:00:15;1.35;;;1.15;;
6133;SDS011;3098;42.678;23.364;2022-11-20T09:02:54;3.17;;;1.42;;
6133;SDS011;3098;42.678;23.364;2022-11-20T09:05:42;1.00;;;0.90;;
6133;SDS011;3098;42.678;23.364;2022-11-20T09:08:15;3.78;;;1.42;;
6133;SDS011;3098;42.678;23.364;2022-11-20T09:10:43;3.28;;;1.30;;
6133;SDS011;3098;42.678;23.364;2022-11-20T09:13:10;7.43;;;1.38;;
6133;SDS011;3098;42.678;23.364;2022-11-20T09:15:37;3.13;;;1.42;;
6133;SDS011;3098;42.678;23.364;2022-11-20T09:18:04;11.70;;;1.85;;
6133;SDS011;3098;42.678;23.364;2022-11-20T09:20:31;6.38;;;1.38;;
6133;SDS011;3098;42.678;23.364;2022-11-20T09:23:00;1.83;;;1.08;;
6133;SDS011;3098;42.678;23.364;2022-11-20T09:25:27;1.88;;;1.05;;
6133;SDS011;3098;42.678;23.364;2022-11-20T09:27:54;4.80;;;1.90;;
6133;SDS011;3098;42.678;23.364;2022-11-20T09:30:22;3.38;;;1.73;;
6133;SDS011;3098;42.678;23.364;2022-11-20T09:32:49;1.67;;;0.90;;
6133;SDS011;3098;42.678;23.364;2022-11-20T09:35:16;2.05;;;1.02;;
6133;SDS011;3098;42.678;23.364;2022-11-20T09:37:44;4.43;;;1.38;;
6133;SDS011;3098;42.678;23.364;2022-11-20T09:40:17;2.10;;;0.90;;
6133;SDS011;3098;42.678;23.364;2022-11-20T09:42:47;7.28;;;1.10;;
6133;SDS011;3098;42.678;23.364;2022-11-20T09:45:23;0.77;;;0.73;;
6133;SDS011;3098;42.678;23.364;2022-11-20T09:48:02;1.42;;;1.15;;
6133;SDS011;3098;42.678;23.364;2022-11-20T09:50:46;2.53;;;1.33;;
6133;SDS011;3098;42.678;23.364;2022-11-20T09:53:21;1.15;;;0.90;;
6133;SDS011;3098;42.678;23.364;2022-11-20T09:55:58;0.80;;;0.80;;
6133;SDS011;3098;42.678;23.364;2022-11-20T09:58:31;1.88;;;1.20;;
6133;SDS011;3098;42.678;23.364;2022-11-20T10:01:05;2.03;;;1.08;;
6133;SDS011;3098;42.678;23.364;2022-11-20T10:03:39;1.83;;;1.20;;
6133;SDS011;3098;42.678;23.364;2022-11-20T10:06:13;2.40;;;1.20;;
6133;SDS011;3098;42.678;23.364;2022-11-20T10:08:47;1.00;;;0.80;;
6133;SDS011;3098;42.678;23.364;2022-11-20T10:11:27;2.03;;;1.40;;
6133;SDS011;3098;42.678;23.364;2022-11-20T10:14:06;2.75;;;1.73;;
6133;SDS011;3098;42.678;23.364;2022-11-20T10:16:44;3.15;;;2.05;;
6133;SDS011;3098;42.678;23.364;2022-11-20T10:19:24;5.30;;;2.03;;
6133;SDS011;3098;42.678;23.364;2022-11-20T10:22:07;3.00;;;1.63;;
6133;SDS011;3098;42.678;23.364;2022-11-20T10:24:43;2.45;;;1.67;;
6133;SDS011;3098;42.678;23.364;2022-11-20T10:30:17;5.75;;;2.13;;
6133;SDS011;3098;42.678;23.364;2022-11-20T10:32:51;2.67;;;1.63;;
6133;SDS011;3098;42.678;23.364;2022-11-20T10:35:21;3.90;;;1.65;;
6133;SDS011;3098;42.678;23.364;2022-11-20T10:37:55;2.35;;;1.50;;
6133;SDS011;3098;42.678;23.364;2022-11-20T10:40:28;3.08;;;1.90;;
6133;SDS011;3098;42.678;23.364;2022-11-20T10:43:04;3.00;;;1.92;;
6133;SDS011;3098;42.678;23.364;2022-11-20T10:45:43;4.13;;;1.70;;
6133;SDS011;3098;42.678;23.364;2022-11-20T10:48:16;2.63;;;1.52;;
6133;SDS011;3098;42.678;23.364;2022-11-20T10:50:59;2.50;;;1.67;;
6133;SDS011;3098;42.678;23.364;2022-11-20T10:53:51;2.50;;;1.55;;
6133;SDS011;3098;42.678;23.364;2022-11-20T10:56:24;1.95;;;1.75;;
6133;SDS011;3098;42.678;23.364;2022-11-20T10:59:03;3.92;;;1.80;;
6133;SDS011;3098;42.678;23.364;2022-11-20T11:01:39;5.55;;;2.22;;
6133;SDS011;3098;42.678;23.364;2022-11-20T11:04:14;1.98;;;1.58;;
6133;SDS011;3098;42.678;23.364;2022-11-20T11:06:56;2.90;;;1.63;;
6133;SDS011;3098;42.678;23.364;2022-11-20T11:09:33;4.38;;;1.88;;
6133;SDS011;3098;42.678;23.364;2022-11-20T11:12:05;2.28;;;1.88;;
6133;SDS011;3098;42.678;23.364;2022-11-20T11:14:48;3.78;;;1.70;;
6133;SDS011;3098;42.678;23.364;2022-11-20T11:17:26;3.28;;;1.77;;
6133;SDS011;3098;42.678;23.364;2022-11-20T11:19:57;1.52;;;0.75;;
6133;SDS011;3098;42.678;23.364;2022-11-20T11:22:29;1.45;;;0.93;;
6133;SDS011;3098;42.678;23.364;2022-11-20T11:24:58;4.50;;;0.88;;
6133;SDS011;3098;42.678;23.364;2022-11-20T11:27:26;0.60;;;0.60;;
6133;SDS011;3098;42.678;23.364;2022-11-20T11:30:13;0.30;;;0.30;;
6133;SDS011;3098;42.678;23.364;2022-11-20T11:32:43;0.43;;;0.40;;
6133;SDS011;3098;42.678;23.364;2022-11-20T11:35:19;0.70;;;0.70;;
6133;SDS011;3098;42.678;23.364;2022-11-20T11:37:53;0.68;;;0.63;;
6133;SDS011;3098;42.678;23.364;2022-11-20T11:40:29;0.82;;;0.50;;
6133;SDS011;3098;42.678;23.364;2022-11-20T11:43:01;0.50;;;0.50;;
6133;SDS011;3098;42.678;23.364;2022-11-20T11:45:53;0.35;;;0.35;;
6133;SDS011;3098;42.678;23.364;2022-11-20T11:48:21;3.00;;;0.65;;
6133;SDS011;3098;42.678;23.364;2022-11-20T11:50:49;0.45;;;0.45;;
6133;SDS011;3098;42.678;23.364;2022-11-20T11:53:18;1.98;;;0.63;;
6133;SDS011;3098;42.678;23.364;2022-11-20T11:55:50;0.20;;;0.20;;
6133;SDS011;3098;42.678;23.364;2022-11-20T11:58:40;0.55;;;0.55;;
6133;SDS011;3098;42.678;23.364;2022-11-20T12:01:17;0.73;;;0.57;;
6133;SDS011;3098;42.678;23.364;2022-11-20T12:03:58;0.63;;;0.55;;
6133;SDS011;3098;42.678;23.364;2022-11-20T12:06:30;0.65;;;0.43;;
6133;SDS011;3098;42.678;23.364;2022-11-20T12:09:01;0.50;;;0.40;;
6133;SDS011;3098;42.678;23.364;2022-11-20T12:11:31;0.60;;;0.60;;
6133;SDS011;3098;42.678;23.364;2022-11-20T12:14:04;2.63;;;1.20;;
6133;SDS011;3098;42.678;23.364;2022-11-20T12:16:41;3.83;;;0.85;;
6133;SDS011;3098;42.678;23.364;2022-11-20T12:19:10;0.68;;;0.68;;
6133;SDS011;3098;42.678;23.364;2022-11-20T12:21:41;0.68;;;0.50;;
6133;SDS011;3098;42.678;23.364;2022-11-20T12:24:27;2.35;;;0.98;;
6133;SDS011;3098;42.678;23.364;2022-11-20T12:27:11;7.20;;;0.82;;
6133;SDS011;3098;42.678;23.364;2022-11-20T12:30:00;0.60;;;0.57;;
6133;SDS011;3098;42.678;23.364;2022-11-20T12:35:43;0.77;;;0.55;;
6133;SDS011;3098;42.678;23.364;2022-11-20T12:41:27;1.10;;;0.43;;
6133;SDS011;3098;42.678;23.364;2022-11-20T12:44:29;0.30;;;0.30;;
6133;SDS011;3098;42.678;23.364;2022-11-20T12:47:29;4.28;;;0.40;;
6133;SDS011;3098;42.678;23.364;2022-11-20T12:50:10;0.35;;;0.35;;
6133;SDS011;3098;42.678;23.364;2022-11-20T12:52:46;0.30;;;0.30;;
6133;SDS011;3098;42.678;23.364;2022-11-20T12:58:12;2.65;;;0.65;;
6133;SDS011;3098;42.678;23.364;2022-11-20T13:00:52;0.77;;;0.60;;
6133;SDS011;3098;42.678;23.364;2022-11-20T13:03:32;8.35;;;1.45;;
6133;SDS011;3098;42.678;23.364;2022-11-20T13:06:10;4.35;;;1.10;;
6133;SDS011;3098;42.678;23.364;2022-11-20T13:08:41;1.38;;;0.93;;
6133;SDS011;3098;42.678;23.364;2022-11-20T13:11:12;1.85;;;1.73;;
6133;SDS011;3098;42.678;23.364;2022-11-20T13:13:52;4.15;;;1.95;;
6133;SDS011;3098;42.678;23.364;2022-11-20T13:16:32;4.57;;;1.85;;
6133;SDS011;3098;42.678;23.364;2022-11-20T13:19:04;2.47;;;1.40;;
6133;SDS011;3098;42.678;23.364;2022-11-20T13:21:40;4.03;;;1.85;;
6133;SDS011;3098;42.678;23.364;2022-11-20T13:24:21;1.85;;;1.10;;
6133;SDS011;3098;42.678;23.364;2022-11-20T13:27:04;1.50;;;1.00;;
6133;SDS011;3098;42.678;23.364;2022-11-20T13:29:47;4.60;;;0.88;;
6133;SDS011;3098;42.678;23.364;2022-11-20T13:32:29;5.45;;;1.48;;
6133;SDS011;3098;42.678;23.364;2022-11-20T13:35:04;4.75;;;1.13;;
6133;SDS011;3098;42.678;23.364;2022-11-20T13:37:41;1.90;;;1.02;;
6133;SDS011;3098;42.678;23.364;2022-11-20T13:40:20;2.78;;;1.27;;
6133;SDS011;3098;42.678;23.364;2022-11-20T13:42:55;3.50;;;1.25;;
6133;SDS011;3098;42.678;23.364;2022-11-20T13:45:28;4.38;;;1.05;;
6133;SDS011;3098;42.678;23.364;2022-11-20T13:47:57;1.23;;;0.95;;
6133;SDS011;3098;42.678;23.364;2022-11-20T13:50:38;3.72;;;1.30;;
6133;SDS011;3098;42.678;23.364;2022-11-20T13:53:17;1.63;;;1.08;;
6133;SDS011;3098;42.678;23.364;2022-11-20T13:56:05;1.20;;;0.93;;
6133;SDS011;3098;42.678;23.364;2022-11-20T13:58:44;3.42;;;1.48;;
6133;SDS011;3098;42.678;23.364;2022-11-20T14:01:19;3.17;;;1.48;;
6133;SDS011;3098;42.678;23.364;2022-11-20T14:03:49;1.95;;;1.20;;
6133;SDS011;3098;42.678;23.364;2022-11-20T14:06:21;2.20;;;1.10;;
6133;SDS011;3098;42.678;23.364;2022-11-20T14:08:55;5.28;;;1.77;;
6133;SDS011;3098;42.678;23.364;2022-11-20T14:11:35;3.45;;;1.52;;
6133;SDS011;3098;42.678;23.364;2022-11-20T14:14:27;8.38;;;1.52;;
6133;SDS011;3098;42.678;23.364;2022-11-20T14:17:17;6.28;;;1.33;;
6133;SDS011;3098;42.678;23.364;2022-11-20T14:19:47;2.97;;;1.80;;
6133;SDS011;3098;42.678;23.364;2022-11-20T14:22:21;2.53;;;1.35;;
6133;SDS011;3098;42.678;23.364;2022-11-20T14:25:02;4.90;;;1.58;;
6133;SDS011;3098;42.678;23.364;2022-11-20T14:27:39;4.13;;;1.75;;
6133;SDS011;3098;42.678;23.364;2022-11-20T14:30:12;5.57;;;1.98;;
6133;SDS011;3098;42.678;23.364;2022-11-20T14:32:46;6.03;;;1.90;;
6133;SDS011;3098;42.678;23.364;2022-11-20T14:35:17;5.78;;;2.17;;
6133;SDS011;3098;42.678;23.364;2022-11-20T14:37:50;3.15;;;1.90;;
6133;SDS011;3098;42.678;23.364;2022-11-20T14:40:28;8.15;;;2.58;;
6133;SDS011;3098;42.678;23.364;2022-11-20T14:43:02;8.20;;;1.92;;
6133;SDS011;3098;42.678;23.364;2022-11-20T14:45:48;7.88;;;2.33;;
6133;SDS011;3098;42.678;23.364;2022-11-20T14:48:22;10.23;;;3.53;;
6133;SDS011;3098;42.678;23.364;2022-11-20T14:50:52;4.43;;;1.98;;
6133;SDS011;3098;42.678;23.364;2022-11-20T14:53:22;5.50;;;2.75;;
6133;SDS011;3098;42.678;23.364;2022-11-20T14:56:01;3.03;;;1.50;;
6133;SDS011;3098;42.678;23.364;2022-11-20T14:58:31;3.35;;;1.80;;
6133;SDS011;3098;42.678;23.364;2022-11-20T15:01:00;2.90;;;1.63;;
6133;SDS011;3098;42.678;23.364;2022-11-20T15:03:33;5.10;;;2.10;;
6133;SDS011;3098;42.678;23.364;2022-11-20T15:06:01;3.72;;;2.22;;
6133;SDS011;3098;42.678;23.364;2022-11-20T15:08:29;8.55;;;2.78;;
6133;SDS011;3098;42.678;23.364;2022-11-20T15:10:59;4.20;;;2.13;;
6133;SDS011;3098;42.678;23.364;2022-11-20T15:13:29;2.55;;;1.75;;
6133;SDS011;3098;42.678;23.364;2022-11-20T15:15:59;4.15;;;1.50;;
6133;SDS011;3098;42.678;23.364;2022-11-20T15:18:29;3.72;;;1.90;;
6133;SDS011;3098;42.678;23.364;2022-11-20T15:21:00;5.68;;;1.88;;
6133;SDS011;3098;42.678;23.364;2022-11-20T15:23:30;4.13;;;1.27;;
6133;SDS011;3098;42.678;23.364;2022-11-20T15:25:59;4.22;;;2.10;;
6133;SDS011;3098;42.678;23.364;2022-11-20T15:28:29;3.80;;;2.25;;
6133;SDS011;3098;42.678;23.364;2022-11-20T15:30:58;2.22;;;1.58;;
6133;SDS011;3098;42.678;23.364;2022-11-20T15:33:25;1.13;;;1.02;;
6133;SDS011;3098;42.678;23.364;2022-11-20T15:35:53;3.17;;;1.50;;
6133;SDS011;3098;42.678;23.364;2022-11-20T15:38:20;2.20;;;1.10;;
6133;SDS011;3098;42.678;23.364;2022-11-20T15:40:48;1.92;;;1.02;;